createdAt,value
2018-10-16T05:06:35.508Z,13.20
2018-10-16T05:09:07.308Z,12.40
2018-10-16T05:11:47.818Z,13.33
2018-10-16T05:14:18.206Z,13.10
2018-10-16T05:16:48.636Z,13.90
2018-10-16T05:19:19.015Z,13.67
2018-10-16T05:21:49.337Z,12.63
2018-10-16T05:24:19.633Z,12.87
2018-10-16T05:26:49.948Z,13.23
2018-10-16T05:29:20.309Z,12.60
2018-10-16T05:31:50.638Z,13.37
2018-10-16T05:34:27.478Z,14.20
2018-10-16T05:36:57.844Z,12.53
2018-10-16T05:39:28.180Z,12.83
2018-10-16T05:41:58.508Z,13.57
2018-10-16T05:44:28.832Z,13.67
2018-10-16T05:46:59.233Z,21.03
2018-10-16T05:49:29.545Z,13.97
2018-10-16T05:51:59.855Z,13.80
2018-10-16T05:54:30.193Z,13.60
2018-10-16T05:57:00.644Z,14.67
2018-10-16T05:59:30.950Z,13.80
2018-10-16T06:02:01.270Z,15.00
2018-10-16T06:04:31.584Z,14.10
2018-10-16T06:07:01.992Z,13.93
2018-10-16T06:09:32.387Z,14.43
2018-10-16T06:12:02.762Z,14.40
2018-10-16T06:14:33.067Z,13.73
2018-10-16T06:17:03.409Z,15.53
2018-10-16T06:19:33.719Z,15.23
2018-10-16T06:22:04.037Z,12.73
2018-10-16T06:24:34.395Z,14.03
2018-10-16T06:27:04.677Z,14.17
2018-10-16T06:29:34.992Z,14.93
2018-10-16T06:32:05.439Z,14.43
2018-10-16T06:34:35.710Z,14.33
2018-10-16T06:37:06.335Z,14.17
2018-10-16T06:39:36.648Z,14.87
2018-10-16T06:42:07.102Z,15.23
2018-10-16T06:44:37.346Z,16.40
2018-10-16T06:47:07.804Z,15.00
2018-10-16T06:49:38.014Z,14.83
2018-10-16T06:52:08.333Z,16.87
2018-10-16T06:54:38.777Z,15.90
2018-10-16T06:57:09.171Z,18.23
2018-10-16T06:59:39.537Z,16.80
2018-10-16T07:02:10.078Z,16.27
2018-10-16T07:04:40.394Z,16.47
2018-10-16T07:07:12.096Z,16.73
2018-10-16T07:09:42.641Z,17.87
2018-10-16T07:12:13.034Z,16.77
2018-10-16T07:14:43.428Z,16.63
2018-10-16T07:17:13.735Z,16.30
2018-10-16T07:19:44.149Z,22.83
2018-10-16T07:22:14.480Z,17.50
2018-10-16T07:24:44.789Z,31.60
2018-10-16T07:27:15.111Z,17.67
2018-10-16T07:29:45.450Z,16.73
2018-10-16T07:32:15.776Z,17.90
2018-10-16T07:34:46.208Z,15.90
2018-10-16T07:37:16.643Z,17.10
2018-10-16T07:39:47.103Z,16.60
2018-10-16T07:42:17.432Z,18.50
2018-10-16T07:44:47.745Z,17.27
2018-10-16T07:47:18.098Z,15.77
2018-10-16T07:49:48.395Z,17.60
2018-10-16T07:52:18.721Z,16.20
2018-10-16T07:54:49.039Z,18.13
2018-10-16T07:57:19.438Z,17.63
2018-10-16T07:59:49.804Z,17.13
2018-10-16T08:02:20.034Z,17.47
2018-10-16T08:04:50.352Z,18.30
2018-10-16T08:07:20.763Z,17.40
2018-10-16T08:09:51.102Z,18.10
2018-10-16T08:12:21.449Z,18.40
2018-10-16T08:14:51.795Z,18.33
2018-10-16T08:17:22.221Z,18.27
2018-10-16T08:19:52.582Z,18.43
2018-10-16T08:22:22.948Z,19.30
2018-10-16T08:24:53.261Z,18.27
2018-10-16T08:27:23.695Z,18.77
2018-10-16T08:29:54.094Z,17.00
2018-10-16T08:32:24.446Z,17.57
2018-10-16T08:34:54.864Z,17.75
2018-10-16T08:38:15.353Z,18.70
2018-10-16T08:40:45.736Z,17.30
2018-10-16T08:43:51.041Z,19.57
2018-10-16T08:46:57.229Z,17.50
2018-10-16T08:50:03.644Z,18.92
2018-10-16T08:52:33.981Z,18.25
2018-10-16T08:55:04.481Z,18.15
2018-10-16T08:57:34.770Z,16.80
2018-10-16T09:00:05.141Z,16.67
2018-10-16T09:02:35.453Z,15.45
2018-10-16T09:05:06.612Z,16.42
2018-10-16T09:07:36.921Z,15.95
2018-10-16T09:10:07.234Z,16.02
2018-10-16T09:12:37.606Z,16.95
2018-10-16T09:15:08.630Z,15.80
2018-10-16T09:17:39.041Z,15.85
2018-10-16T09:20:09.672Z,16.02
2018-10-16T09:22:40.005Z,15.72
2018-10-16T09:25:11.090Z,16.37
2018-10-16T09:27:41.533Z,15.40
2018-10-16T09:30:15.829Z,15.35
2018-10-16T09:32:48.010Z,15.35
2018-10-16T09:35:18.400Z,14.40
2018-10-16T09:37:48.820Z,15.43
2018-10-16T09:40:19.170Z,14.35
2018-10-16T09:42:49.522Z,15.48
2018-10-16T09:45:19.845Z,16.07
2018-10-16T09:47:50.185Z,16.97
2018-10-16T09:50:20.621Z,19.32
2018-10-16T09:52:50.955Z,19.40
2018-10-16T09:55:21.352Z,18.00
2018-10-16T09:57:51.683Z,18.57
2018-10-16T10:00:39.641Z,18.52
2018-10-16T10:03:09.942Z,18.67
2018-10-16T10:05:40.333Z,18.48
2018-10-16T10:08:10.673Z,17.73
2018-10-16T10:10:41.019Z,18.05
2018-10-16T10:13:11.455Z,17.87
2018-10-16T10:15:41.799Z,17.77
2018-10-16T10:18:12.181Z,17.80
2018-10-16T10:20:42.514Z,17.10
2018-10-16T10:23:12.970Z,17.95
2018-10-16T10:25:43.259Z,17.45
2018-10-16T10:28:13.652Z,17.17
2018-10-16T10:30:44.040Z,17.57
2018-10-16T10:33:14.443Z,17.82
2018-10-16T10:35:44.833Z,18.40
2018-10-16T10:38:15.543Z,17.67
2018-10-16T10:40:45.921Z,17.00
2018-10-16T10:43:16.273Z,18.05
2018-10-16T10:45:46.651Z,17.77
2018-10-16T10:48:17.022Z,16.82
2018-10-16T10:50:47.594Z,17.30
2018-10-16T10:53:17.834Z,17.55
2018-10-16T10:55:48.102Z,17.10
2018-10-16T10:58:18.517Z,16.20
2018-10-16T11:00:49.003Z,15.68
2018-10-16T11:03:19.549Z,15.80
2018-10-16T11:05:49.720Z,15.93
2018-10-16T11:08:20.078Z,15.30
2018-10-16T11:10:50.428Z,13.58
2018-10-16T11:13:20.815Z,13.53
2018-10-16T11:15:51.168Z,14.43
2018-10-16T11:18:21.631Z,13.70
2018-10-16T11:20:52.062Z,13.60
2018-10-16T11:23:22.352Z,13.13
2018-10-16T11:25:52.706Z,13.83
2018-10-16T11:28:23.113Z,14.30
2018-10-16T11:30:53.452Z,13.90
2018-10-16T11:33:23.906Z,13.93
2018-10-16T11:35:54.253Z,13.48
2018-10-16T11:38:24.639Z,13.53
2018-10-16T11:40:54.982Z,14.03
2018-10-16T11:43:25.350Z,13.85
2018-10-16T11:45:55.758Z,13.58
2018-10-16T11:48:26.208Z,14.45
2018-10-16T11:50:56.565Z,14.40
2018-10-16T11:53:26.982Z,13.68
2018-10-16T11:55:57.379Z,13.95
2018-10-16T11:58:27.732Z,14.38
2018-10-16T12:00:58.091Z,14.38
2018-10-16T12:03:28.471Z,14.38
2018-10-16T12:05:58.980Z,14.23
2018-10-16T12:08:29.284Z,15.08
2018-10-16T12:10:59.646Z,14.93
2018-10-16T12:13:29.973Z,14.53
2018-10-16T12:16:00.287Z,13.70
2018-10-16T12:18:33.583Z,13.53
2018-10-16T12:21:20.721Z,13.55
2018-10-16T12:23:51.095Z,13.98
2018-10-16T12:26:21.919Z,13.98
2018-10-16T12:28:52.228Z,13.53
2018-10-16T12:31:22.532Z,14.73
2018-10-16T12:33:52.919Z,14.55
2018-10-16T12:36:23.268Z,15.30
2018-10-16T12:38:53.708Z,25.30
2018-10-16T12:41:23.978Z,14.78
2018-10-16T12:43:54.394Z,15.38
2018-10-16T12:46:24.640Z,13.88
2018-10-16T12:48:54.973Z,14.35
2018-10-16T12:51:25.339Z,13.65
2018-10-16T12:53:55.687Z,14.68
2018-10-16T12:56:25.993Z,14.10
2018-10-16T12:58:56.454Z,15.53
2018-10-16T13:01:26.767Z,14.85
2018-10-16T13:03:57.125Z,14.33
2018-10-16T13:06:27.470Z,14.63
2018-10-16T13:08:57.854Z,16.17
2018-10-16T13:11:28.275Z,15.08
2018-10-16T13:13:58.698Z,14.93
2018-10-16T13:16:29.037Z,15.10
2018-10-16T13:18:59.404Z,14.13
2018-10-16T13:21:29.772Z,13.50
2018-10-16T13:24:00.216Z,12.90
2018-10-16T13:26:30.544Z,12.50
2018-10-16T13:29:01.072Z,12.17
2018-10-16T13:31:31.298Z,11.57
2018-10-16T13:34:01.802Z,13.33
2018-10-16T13:36:32.018Z,11.30
2018-10-16T13:39:02.392Z,12.03
2018-10-16T13:41:32.727Z,10.77
2018-10-16T13:44:03.076Z,10.43
2018-10-16T13:46:33.473Z,10.10
2018-10-16T13:49:03.693Z,10.17
2018-10-16T13:51:34.039Z,11.33
2018-10-16T13:54:04.494Z,10.60
2018-10-16T13:56:34.726Z,10.87
2018-10-16T13:59:05.037Z,11.43
2018-10-16T14:01:35.464Z,10.80
2018-10-16T14:04:05.842Z,11.83
2018-10-16T14:06:36.290Z,11.83
2018-10-16T14:09:08.777Z,11.23
2018-10-16T14:11:39.126Z,11.07
2018-10-16T14:14:09.497Z,11.57
2018-10-16T14:16:39.838Z,11.87
2018-10-16T14:19:10.159Z,11.33
2018-10-16T14:21:40.521Z,10.57
2018-10-16T14:24:10.865Z,11.00
2018-10-16T14:26:41.223Z,11.20
2018-10-16T14:29:11.564Z,10.67
2018-10-16T14:31:41.997Z,10.83
2018-10-16T14:34:12.260Z,11.00
2018-10-16T14:36:42.712Z,12.93
2018-10-16T14:39:13.766Z,10.30
2018-10-16T14:41:44.156Z,10.30
2018-10-16T14:44:14.544Z,9.90
2018-10-16T14:46:44.940Z,9.97
2018-10-16T14:49:15.488Z,10.07
2018-10-16T14:51:45.911Z,10.23
2018-10-16T14:54:16.246Z,10.00
2018-10-16T14:56:46.626Z,10.50
2018-10-16T14:59:16.920Z,11.23
2018-10-16T15:01:47.294Z,9.83
2018-10-16T15:04:17.700Z,10.40
2018-10-16T15:06:48.032Z,9.57
2018-10-16T15:09:18.385Z,10.63
2018-10-16T15:11:48.739Z,9.87
2018-10-16T15:14:19.077Z,10.60
2018-10-16T15:16:50.448Z,10.07
2018-10-16T15:19:20.974Z,9.80
2018-10-16T15:21:51.236Z,10.03
2018-10-16T15:24:21.591Z,9.90
2018-10-16T15:26:52.127Z,9.73
2018-10-16T15:29:22.390Z,9.77
2018-10-16T15:31:52.710Z,9.90
2018-10-16T15:34:23.010Z,9.50
2018-10-16T15:36:53.444Z,9.47
2018-10-16T15:39:23.765Z,9.13
2018-10-16T15:41:54.100Z,9.30
2018-10-16T15:44:24.411Z,9.50
2018-10-16T15:46:55.790Z,10.63
2018-10-16T15:49:26.087Z,9.50
2018-10-16T15:51:56.536Z,10.00
2018-10-16T15:54:26.825Z,9.40
2018-10-16T15:56:57.184Z,9.20
2018-10-16T15:59:27.491Z,9.50
2018-10-16T16:01:57.895Z,9.87
2018-10-16T16:04:28.169Z,9.63
2018-10-16T16:06:58.486Z,9.27
2018-10-16T16:09:28.794Z,10.07
2018-10-16T16:11:59.112Z,10.00
2018-10-16T16:14:29.619Z,10.50
2018-10-16T16:17:00.075Z,9.40
2018-10-16T16:19:30.442Z,10.50
2018-10-16T16:22:00.772Z,9.63
2018-10-16T16:24:31.079Z,9.97
2018-10-16T16:27:01.471Z,10.57
2018-10-16T16:29:31.880Z,10.93
2018-10-16T16:32:02.261Z,20.10
2018-10-16T16:34:32.538Z,14.20
2018-10-16T16:37:02.884Z,13.03
2018-10-16T16:39:33.193Z,10.87
2018-10-16T16:42:03.585Z,11.33
2018-10-16T16:44:33.919Z,10.70
2018-10-16T16:47:04.229Z,10.33
2018-10-16T16:49:34.530Z,10.43
2018-10-16T16:52:04.897Z,10.30
2018-10-16T16:54:35.203Z,10.30
2018-10-16T16:57:05.814Z,10.90
2018-10-16T16:59:36.194Z,10.50
2018-10-16T17:02:06.712Z,10.50
2018-10-16T17:04:37.261Z,11.93
